sensor_id;sensor_type;location;lat;lon;timestamp;temperature;humidity
49503;DHT22;35409;48.776;9.204;2022-09-23T03:27:03;5.70;99.90
49503;DHT22;35409;48.776;9.204;2022-09-23T03:29:30;5.70;99.90
49503;DHT22;35409;48.776;9.204;2022-09-23T03:31:57;5.60;99.90
49503;DHT22;35409;48.776;9.204;2022-09-23T03:34:28;5.70;99.90
49503;DHT22;35409;48.776;9.204;2022-09-23T03:37:03;5.60;99.90
49503;DHT22;35409;48.776;9.204;2022-09-23T03:42:12;5.50;99.90
49503;DHT22;35409;48.776;9.204;2022-09-23T03:44:44;5.50;99.90
49503;DHT22;35409;48.776;9.204;2022-09-23T03:47:12;5.40;99.90
49503;DHT22;35409;48.776;9.204;2022-09-23T03:49:41;5.40;99.90
49503;DHT22;35409;48.776;9.204;2022-09-23T03:52:07;5.40;99.90
49503;DHT22;35409;48.776;9.204;2022-09-23T03:54:33;5.30;99.90
49503;DHT22;35409;48.776;9.204;2022-09-23T03:56:59;5.30;99.90
49503;DHT22;35409;48.776;9.204;2022-09-23T03:59:26;5.30;99.90
49503;DHT22;35409;48.776;9.204;2022-09-23T04:01:52;5.30;99.90
49503;DHT22;35409;48.776;9.204;2022-09-23T04:04:18;5.30;99.90
49503;DHT22;35409;48.776;9.204;2022-09-23T04:06:45;5.30;99.90
49503;DHT22;35409;48.776;9.204;2022-09-23T04:09:10;5.30;99.90
49503;DHT22;35409;48.776;9.204;2022-09-23T04:11:36;5.30;99.90
49503;DHT22;35409;48.776;9.204;2022-09-23T04:14:02;5.30;99.90
49503;DHT22;35409;48.776;9.204;2022-09-23T04:16:28;5.30;99.90
49503;DHT22;35409;48.776;9.204;2022-09-23T04:18:54;5.30;99.90
49503;DHT22;35409;48.776;9.204;2022-09-23T04:21:20;5.20;99.90
49503;DHT22;35409;48.776;9.204;2022-09-23T04:23:45;5.20;99.90
49503;DHT22;35409;48.776;9.204;2022-09-23T04:26:12;5.20;99.90
49503;DHT22;35409;48.776;9.204;2022-09-23T04:28:37;5.20;99.90
49503;DHT22;35409;48.776;9.204;2022-09-23T04:31:04;5.20;99.90
49503;DHT22;35409;48.776;9.204;2022-09-23T04:33:31;5.20;99.90
49503;DHT22;35409;48.776;9.204;2022-09-23T04:35:56;5.20;99.90
49503;DHT22;35409;48.776;9.204;2022-09-23T04:38:22;5.20;99.90
49503;DHT22;35409;48.776;9.204;2022-09-23T04:40:48;5.20;99.90
49503;DHT22;35409;48.776;9.204;2022-09-23T04:43:14;5.30;99.90
49503;DHT22;35409;48.776;9.204;2022-09-23T04:45:44;5.30;99.90
49503;DHT22;35409;48.776;9.204;2022-09-23T04:48:11;5.40;99.90
49503;DHT22;35409;48.776;9.204;2022-09-23T04:50:38;5.40;99.90
49503;DHT22;35409;48.776;9.204;2022-09-23T04:53:04;5.40;99.90
49503;DHT22;35409;48.776;9.204;2022-09-23T04:55:31;5.40;99.90
49503;DHT22;35409;48.776;9.204;2022-09-23T04:57:56;5.40;99.90
49503;DHT22;35409;48.776;9.204;2022-09-23T05:00:22;5.40;99.90
49503;DHT22;35409;48.776;9.204;2022-09-23T05:02:49;5.40;99.90
49503;DHT22;35409;48.776;9.204;2022-09-23T05:05:16;5.40;99.90
49503;DHT22;35409;48.776;9.204;2022-09-23T05:07:49;5.30;99.90
49503;DHT22;35409;48.776;9.204;2022-09-23T05:10:15;5.30;99.90
49503;DHT22;35409;48.776;9.204;2022-09-23T05:12:42;5.30;99.90
49503;DHT22;35409;48.776;9.204;2022-09-23T05:15:08;5.20;99.90
49503;DHT22;35409;48.776;9.204;2022-09-23T05:17:33;5.20;99.90
49503;DHT22;35409;48.776;9.204;2022-09-23T05:20:01;5.20;99.90
49503;DHT22;35409;48.776;9.204;2022-09-23T05:22:28;5.20;99.90
49503;DHT22;35409;48.776;9.204;2022-09-23T05:24:54;5.30;99.90
49503;DHT22;35409;48.776;9.204;2022-09-23T05:27:20;5.30;99.90
49503;DHT22;35409;48.776;9.204;2022-09-23T05:29:46;5.30;99.90
49503;DHT22;35409;48.776;9.204;2022-09-23T05:32:12;5.40;99.90
49503;DHT22;35409;48.776;9.204;2022-09-23T05:34:38;5.50;99.90
49503;DHT22;35409;48.776;9.204;2022-09-23T05:37:04;5.50;99.90
49503;DHT22;35409;48.776;9.204;2022-09-23T05:39:29;5.50;99.90
49503;DHT22;35409;48.776;9.204;2022-09-23T05:41:55;5.50;99.90
49503;DHT22;35409;48.776;9.204;2022-09-23T05:44:21;5.60;99.90
49503;DHT22;35409;48.776;9.204;2022-09-23T05:46:46;5.60;99.90
49503;DHT22;35409;48.776;9.204;2022-09-23T05:49:12;5.60;99.90
49503;DHT22;35409;48.776;9.204;2022-09-23T05:51:38;5.60;99.90
49503;DHT22;35409;48.776;9.204;2022-09-23T05:54:04;5.70;99.90
49503;DHT22;35409;48.776;9.204;2022-09-23T05:56:30;5.80;99.90
49503;DHT22;35409;48.776;9.204;2022-09-23T05:58:58;5.90;99.90
49503;DHT22;35409;48.776;9.204;2022-09-23T06:01:27;6.10;99.90
49503;DHT22;35409;48.776;9.204;2022-09-23T06:03:54;6.10;99.90
49503;DHT22;35409;48.776;9.204;2022-09-23T06:06:25;6.10;99.90
49503;DHT22;35409;48.776;9.204;2022-09-23T06:08:52;6.30;99.90
49503;DHT22;35409;48.776;9.204;2022-09-23T06:11:17;6.40;99.90
49503;DHT22;35409;48.776;9.204;2022-09-23T06:13:45;6.50;99.90
49503;DHT22;35409;48.776;9.204;2022-09-23T06:16:13;6.60;99.90
49503;DHT22;35409;48.776;9.204;2022-09-23T06:18:43;6.60;99.90
49503;DHT22;35409;48.776;9.204;2022-09-23T06:21:14;6.70;99.90
49503;DHT22;35409;48.776;9.204;2022-09-23T06:23:40;6.90;99.90
49503;DHT22;35409;48.776;9.204;2022-09-23T06:26:08;7.00;99.90
49503;DHT22;35409;48.776;9.204;2022-09-23T06:28:37;7.10;99.90
49503;DHT22;35409;48.776;9.204;2022-09-23T06:31:04;7.20;99.90
49503;DHT22;35409;48.776;9.204;2022-09-23T06:33:33;7.30;99.90
49503;DHT22;35409;48.776;9.204;2022-09-23T06:36:01;7.40;99.90
49503;DHT22;35409;48.776;9.204;2022-09-23T06:38:28;7.50;99.90
49503;DHT22;35409;48.776;9.204;2022-09-23T06:40:55;7.70;99.90
49503;DHT22;35409;48.776;9.204;2022-09-23T06:43:22;7.80;99.90
49503;DHT22;35409;48.776;9.204;2022-09-23T06:45:58;7.90;99.90
49503;DHT22;35409;48.776;9.204;2022-09-23T06:48:25;8.00;99.90
49503;DHT22;35409;48.776;9.204;2022-09-23T06:50:58;8.20;99.90
49503;DHT22;35409;48.776;9.204;2022-09-23T06:53:24;8.30;99.90
49503;DHT22;35409;48.776;9.204;2022-09-23T06:56:04;8.40;99.90
49503;DHT22;35409;48.776;9.204;2022-09-23T06:58:30;8.50;99.90
49503;DHT22;35409;48.776;9.204;2022-09-23T07:01:04;8.60;99.90
49503;DHT22;35409;48.776;9.204;2022-09-23T07:03:32;8.70;99.90
49503;DHT22;35409;48.776;9.204;2022-09-23T07:05:58;8.80;99.90
49503;DHT22;35409;48.776;9.204;2022-09-23T07:08:26;9.00;99.90
49503;DHT22;35409;48.776;9.204;2022-09-23T07:28:05;10.60;99.90
49503;DHT22;35409;48.776;9.204;2022-09-23T07:35:24;11.20;99.90
49503;DHT22;35409;48.776;9.204;2022-09-23T07:37:52;11.10;99.90
49503;DHT22;35409;48.776;9.204;2022-09-23T07:40:18;11.30;99.90
49503;DHT22;35409;48.776;9.204;2022-09-23T07:42:43;11.50;99.90
49503;DHT22;35409;48.776;9.204;2022-09-23T07:45:09;11.70;99.90
49503;DHT22;35409;48.776;9.204;2022-09-23T07:52:35;12.10;99.90
49503;DHT22;35409;48.776;9.204;2022-09-23T07:55:02;12.20;99.90
49503;DHT22;35409;48.776;9.204;2022-09-23T07:57:28;12.30;99.90
49503;DHT22;35409;48.776;9.204;2022-09-23T07:59:54;12.40;99.90
49503;DHT22;35409;48.776;9.204;2022-09-23T08:02:19;12.50;99.90
49503;DHT22;35409;48.776;9.204;2022-09-23T08:04:45;12.50;99.90
49503;DHT22;35409;48.776;9.204;2022-09-23T08:07:11;12.60;99.90
49503;DHT22;35409;48.776;9.204;2022-09-23T08:09:40;12.70;99.90
49503;DHT22;35409;48.776;9.204;2022-09-23T08:12:14;12.80;99.90
49503;DHT22;35409;48.776;9.204;2022-09-23T08:14:40;12.90;99.90
49503;DHT22;35409;48.776;9.204;2022-09-23T08:17:06;12.90;99.90
49503;DHT22;35409;48.776;9.204;2022-09-23T08:19:32;13.00;99.90
49503;DHT22;35409;48.776;9.204;2022-09-23T08:47:59;14.20;99.90
49503;DHT22;35409;48.776;9.204;2022-09-23T08:52:33;14.30;99.90
49503;DHT22;35409;48.776;9.204;2022-09-23T09:20:39;15.50;99.90
49503;DHT22;35409;48.776;9.204;2022-09-23T09:23:28;15.50;99.90
49503;DHT22;35409;48.776;9.204;2022-09-23T09:26:00;15.40;99.90
49503;DHT22;35409;48.776;9.204;2022-09-23T09:28:46;15.50;99.90
49503;DHT22;35409;48.776;9.204;2022-09-23T09:31:33;15.50;99.90
49503;DHT22;35409;48.776;9.204;2022-09-23T09:34:03;15.60;99.90
49503;DHT22;35409;48.776;9.204;2022-09-23T09:36:41;15.60;99.90
49503;DHT22;35409;48.776;9.204;2022-09-23T09:39:11;15.70;99.90
49503;DHT22;35409;48.776;9.204;2022-09-23T09:41:46;15.80;99.90
49503;DHT22;35409;48.776;9.204;2022-09-23T09:44:41;16.00;99.90
49503;DHT22;35409;48.776;9.204;2022-09-23T09:50:07;16.30;99.90
49503;DHT22;35409;48.776;9.204;2022-09-23T09:52:33;16.40;99.90
49503;DHT22;35409;48.776;9.204;2022-09-23T09:55:25;16.50;99.90
49503;DHT22;35409;48.776;9.204;2022-09-23T10:00:34;16.70;99.90
49503;DHT22;35409;48.776;9.204;2022-09-23T10:34:02;17.70;99.90
49503;DHT22;35409;48.776;9.204;2022-09-23T10:36:30;17.70;99.90
49503;DHT22;35409;48.776;9.204;2022-09-23T10:39:03;17.70;99.90
49503;DHT22;35409;48.776;9.204;2022-09-23T10:41:58;17.80;99.90
49503;DHT22;35409;48.776;9.204;2022-09-23T10:45:17;17.80;99.90
49503;DHT22;35409;48.776;9.204;2022-09-23T10:57:10;18.10;99.90
49503;DHT22;35409;48.776;9.204;2022-09-23T11:00:21;18.00;99.90
49503;DHT22;35409;48.776;9.204;2022-09-23T11:24:10;19.40;99.90
49503;DHT22;35409;48.776;9.204;2022-09-23T11:35:42;20.70;93.70
49503;DHT22;35409;48.776;9.204;2022-09-23T11:38:32;20.60;93.80
49503;DHT22;35409;48.776;9.204;2022-09-23T11:41:17;20.30;93.50
49503;DHT22;35409;48.776;9.204;2022-09-23T11:43:47;19.90;93.70
49503;DHT22;35409;48.776;9.204;2022-09-23T11:52:05;19.40;93.80
49503;DHT22;35409;48.776;9.204;2022-09-23T11:54:42;19.30;93.80
49503;DHT22;35409;48.776;9.204;2022-09-23T11:58:01;19.40;93.10
49503;DHT22;35409;48.776;9.204;2022-09-23T12:00:05;19.30;92.80
49503;DHT22;35409;48.776;9.204;2022-09-23T12:05:25;19.60;92.70
49503;DHT22;35409;48.776;9.204;2022-09-23T12:08:00;20.10;92.20
49503;DHT22;35409;48.776;9.204;2022-09-23T12:13:48;20.80;90.90
49503;DHT22;35409;48.776;9.204;2022-09-23T12:19:15;21.50;90.30
49503;DHT22;35409;48.776;9.204;2022-09-23T17:24:36;15.90;99.90
49503;DHT22;35409;48.776;9.204;2022-09-23T17:27:02;15.70;99.90
49503;DHT22;35409;48.776;9.204;2022-09-23T17:29:27;15.60;99.90
49503;DHT22;35409;48.776;9.204;2022-09-23T17:31:53;15.50;99.90
49503;DHT22;35409;48.776;9.204;2022-09-23T17:34:20;15.30;99.90
49503;DHT22;35409;48.776;9.204;2022-09-23T17:36:45;15.20;99.90
49503;DHT22;35409;48.776;9.204;2022-09-23T17:39:11;15.10;99.90
49503;DHT22;35409;48.776;9.204;2022-09-23T17:41:37;15.00;99.90
49503;DHT22;35409;48.776;9.204;2022-09-23T17:44:03;14.90;99.90
49503;DHT22;35409;48.776;9.204;2022-09-23T17:46:29;14.80;99.90
49503;DHT22;35409;48.776;9.204;2022-09-23T17:48:55;14.80;99.90
49503;DHT22;35409;48.776;9.204;2022-09-23T17:51:22;14.60;99.90
49503;DHT22;35409;48.776;9.204;2022-09-23T17:53:49;14.60;99.90
49503;DHT22;35409;48.776;9.204;2022-09-23T17:56:17;14.50;99.90
49503;DHT22;35409;48.776;9.204;2022-09-23T17:58:43;14.40;99.90
49503;DHT22;35409;48.776;9.204;2022-09-23T18:01:12;14.40;99.90
49503;DHT22;35409;48.776;9.204;2022-09-23T18:03:39;14.30;99.90
49503;DHT22;35409;48.776;9.204;2022-09-23T18:06:16;14.20;99.90
49503;DHT22;35409;48.776;9.204;2022-09-23T18:08:44;14.20;99.90
49503;DHT22;35409;48.776;9.204;2022-09-23T18:11:21;14.10;99.90
49503;DHT22;35409;48.776;9.204;2022-09-23T18:13:51;14.00;99.90
49503;DHT22;35409;48.776;9.204;2022-09-23T18:16:18;14.00;99.90
49503;DHT22;35409;48.776;9.204;2022-09-23T18:18:49;13.90;99.90
49503;DHT22;35409;48.776;9.204;2022-09-23T18:21:15;13.90;99.90
49503;DHT22;35409;48.776;9.204;2022-09-23T18:23:40;13.80;99.90
49503;DHT22;35409;48.776;9.204;2022-09-23T18:26:15;13.80;99.90
49503;DHT22;35409;48.776;9.204;2022-09-23T18:28:41;13.80;99.90
49503;DHT22;35409;48.776;9.204;2022-09-23T18:31:08;13.70;99.90
49503;DHT22;35409;48.776;9.204;2022-09-23T18:33:34;13.70;99.90
49503;DHT22;35409;48.776;9.204;2022-09-23T18:36:01;13.70;99.90
49503;DHT22;35409;48.776;9.204;2022-09-23T18:38:27;13.60;99.90
49503;DHT22;35409;48.776;9.204;2022-09-23T18:40:55;13.60;99.90
49503;DHT22;35409;48.776;9.204;2022-09-23T18:43:27;13.60;99.90
49503;DHT22;35409;48.776;9.204;2022-09-23T18:46:00;13.60;99.90
49503;DHT22;35409;48.776;9.204;2022-09-23T18:48:26;13.50;99.90
49503;DHT22;35409;48.776;9.204;2022-09-23T18:51:12;13.50;99.90
49503;DHT22;35409;48.776;9.204;2022-09-23T18:53:38;13.50;99.90
49503;DHT22;35409;48.776;9.204;2022-09-23T18:56:12;13.50;99.90
49503;DHT22;35409;48.776;9.204;2022-09-23T18:58:38;13.50;99.90
49503;DHT22;35409;48.776;9.204;2022-09-23T19:01:08;13.50;99.90
49503;DHT22;35409;48.776;9.204;2022-09-23T19:03:35;13.50;99.90
49503;DHT22;35409;48.776;9.204;2022-09-23T19:06:05;13.50;99.90
49503;DHT22;35409;48.776;9.204;2022-09-23T19:08:32;13.50;99.90
49503;DHT22;35409;48.776;9.204;2022-09-23T19:10:59;13.50;99.90
49503;DHT22;35409;48.776;9.204;2022-09-23T19:13:36;13.50;99.90
49503;DHT22;35409;48.776;9.204;2022-09-23T19:16:03;13.50;99.90
49503;DHT22;35409;48.776;9.204;2022-09-23T19:18:30;13.60;99.90
49503;DHT22;35409;48.776;9.204;2022-09-23T19:20:56;13.50;99.90
49503;DHT22;35409;48.776;9.204;2022-09-23T19:23:28;13.50;99.90
49503;DHT22;35409;48.776;9.204;2022-09-23T19:25:54;13.50;99.90
49503;DHT22;35409;48.776;9.204;2022-09-23T19:28:20;13.50;99.90
49503;DHT22;35409;48.776;9.204;2022-09-23T19:30:45;13.50;99.90
49503;DHT22;35409;48.776;9.204;2022-09-23T19:33:11;13.50;99.90
49503;DHT22;35409;48.776;9.204;2022-09-23T19:35:45;13.50;99.90
49503;DHT22;35409;48.776;9.204;2022-09-23T19:38:11;13.50;99.90
49503;DHT22;35409;48.776;9.204;2022-09-23T19:40:37;13.50;99.90
49503;DHT22;35409;48.776;9.204;2022-09-23T19:43:03;13.40;99.90
49503;DHT22;35409;48.776;9.204;2022-09-23T19:45:29;13.40;99.90
49503;DHT22;35409;48.776;9.204;2022-09-23T19:47:58;13.40;99.90
49503;DHT22;35409;48.776;9.204;2022-09-23T19:50:26;13.40;99.90
49503;DHT22;35409;48.776;9.204;2022-09-23T19:52:55;13.30;99.90
49503;DHT22;35409;48.776;9.204;2022-09-23T19:55:21;13.30;99.90
49503;DHT22;35409;48.776;9.204;2022-09-23T19:57:46;13.30;99.90
49503;DHT22;35409;48.776;9.204;2022-09-23T20:00:13;13.20;99.90
49503;DHT22;35409;48.776;9.204;2022-09-23T20:02:40;13.20;99.90
49503;DHT22;35409;48.776;9.204;2022-09-23T20:05:06;13.20;99.90
49503;DHT22;35409;48.776;9.204;2022-09-23T20:07:32;13.20;99.90
49503;DHT22;35409;48.776;9.204;2022-09-23T20:09:57;13.20;99.90
49503;DHT22;35409;48.776;9.204;2022-09-23T20:12:23;13.10;99.90
49503;DHT22;35409;48.776;9.204;2022-09-23T20:14:48;13.10;99.90
49503;DHT22;35409;48.776;9.204;2022-09-23T20:17:16;13.20;99.90
49503;DHT22;35409;48.776;9.204;2022-09-23T20:19:43;13.10;99.90
49503;DHT22;35409;48.776;9.204;2022-09-23T20:22:09;13.10;99.90
49503;DHT22;35409;48.776;9.204;2022-09-23T20:24:50;13.10;99.90
49503;DHT22;35409;48.776;9.204;2022-09-23T20:27:16;13.10;99.90
49503;DHT22;35409;48.776;9.204;2022-09-23T20:29:42;13.10;99.90
49503;DHT22;35409;48.776;9.204;2022-09-23T20:32:08;13.00;99.90
49503;DHT22;35409;48.776;9.204;2022-09-23T20:34:36;13.00;99.90
49503;DHT22;35409;48.776;9.204;2022-09-23T20:37:02;12.90;99.90
49503;DHT22;35409;48.776;9.204;2022-09-23T20:39:29;12.80;99.90
49503;DHT22;35409;48.776;9.204;2022-09-23T20:41:55;12.80;99.90
49503;DHT22;35409;48.776;9.204;2022-09-23T20:44:21;12.70;99.90
49503;DHT22;35409;48.776;9.204;2022-09-23T20:46:46;12.70;99.90
49503;DHT22;35409;48.776;9.204;2022-09-23T20:49:12;12.70;99.90
49503;DHT22;35409;48.776;9.204;2022-09-23T20:51:38;12.60;99.90
49503;DHT22;35409;48.776;9.204;2022-09-23T20:54:04;12.60;99.90
49503;DHT22;35409;48.776;9.204;2022-09-23T20:56:31;12.60;99.90
49503;DHT22;35409;48.776;9.204;2022-09-23T20:59:01;12.60;99.90
49503;DHT22;35409;48.776;9.204;2022-09-23T21:01:27;12.50;99.90
49503;DHT22;35409;48.776;9.204;2022-09-23T21:03:53;12.50;99.90
49503;DHT22;35409;48.776;9.204;2022-09-23T21:06:20;12.40;99.90
49503;DHT22;35409;48.776;9.204;2022-09-23T21:08:53;12.40;99.90
49503;DHT22;35409;48.776;9.204;2022-09-23T21:11:19;12.40;99.90
49503;DHT22;35409;48.776;9.204;2022-09-23T21:13:49;12.40;99.90
49503;DHT22;35409;48.776;9.204;2022-09-23T21:16:17;12.40;99.90
49503;DHT22;35409;48.776;9.204;2022-09-23T21:18:43;12.30;99.90
49503;DHT22;35409;48.776;9.204;2022-09-23T21:21:11;12.30;99.90
49503;DHT22;35409;48.776;9.204;2022-09-23T21:23:39;12.30;99.90
49503;DHT22;35409;48.776;9.204;2022-09-23T21:26:08;12.20;99.90
49503;DHT22;35409;48.776;9.204;2022-09-23T21:28:51;12.10;99.90
49503;DHT22;35409;48.776;9.204;2022-09-23T21:31:23;12.10;99.90
49503;DHT22;35409;48.776;9.204;2022-09-23T21:34:00;12.10;99.90
49503;DHT22;35409;48.776;9.204;2022-09-23T21:36:27;12.10;99.90
49503;DHT22;35409;48.776;9.204;2022-09-23T21:38:53;12.00;99.90
49503;DHT22;35409;48.776;9.204;2022-09-23T21:41:22;12.00;99.90
49503;DHT22;35409;48.776;9.204;2022-09-23T21:43:49;12.10;99.90
49503;DHT22;35409;48.776;9.204;2022-09-23T21:46:17;12.10;99.90
49503;DHT22;35409;48.776;9.204;2022-09-23T21:48:48;12.10;99.90
49503;DHT22;35409;48.776;9.204;2022-09-23T21:51:24;12.10;99.90
49503;DHT22;35409;48.776;9.204;2022-09-23T21:53:50;12.00;99.90
49503;DHT22;35409;48.776;9.204;2022-09-23T21:56:21;12.00;99.90
49503;DHT22;35409;48.776;9.204;2022-09-23T21:58:48;12.00;99.90
49503;DHT22;35409;48.776;9.204;2022-09-23T22:01:37;12.00;99.90
